createdAt,value
2018-03-08T00:01:12.020Z,4.40
2018-03-08T00:03:40.204Z,4.27
2018-03-08T00:06:08.376Z,3.60
2018-03-08T00:08:36.479Z,3.80
2018-03-08T00:11:04.585Z,4.10
2018-03-08T00:13:32.806Z,4.20
2018-03-08T00:16:01.659Z,3.57
2018-03-08T00:18:29.824Z,4.40
2018-03-08T00:20:57.921Z,3.77
2018-03-08T00:23:26.105Z,4.20
2018-03-08T00:25:54.256Z,3.57
2018-03-08T00:28:22.382Z,3.40
2018-03-08T00:30:50.502Z,3.63
2018-03-08T00:33:18.578Z,3.33
2018-03-08T00:35:47.507Z,2.73
2018-03-08T00:38:15.666Z,3.20
2018-03-08T00:40:43.791Z,3.30
2018-03-08T00:43:11.904Z,3.20
2018-03-08T00:45:40.061Z,3.50
2018-03-08T00:48:08.181Z,2.97
2018-03-08T00:50:36.350Z,3.57
2018-03-08T00:53:04.511Z,3.37
2018-03-08T00:55:32.679Z,3.10
2018-03-08T00:58:01.621Z,3.27
2018-03-08T01:00:29.713Z,2.90
2018-03-08T01:02:57.889Z,3.47
2018-03-08T01:05:26.131Z,3.60
2018-03-08T01:07:54.249Z,2.97
2018-03-08T01:10:22.403Z,3.03
2018-03-08T01:12:51.318Z,3.20
2018-03-08T01:15:19.517Z,3.83
2018-03-08T01:17:47.667Z,2.80
2018-03-08T01:20:15.768Z,2.90
2018-03-08T01:22:44.652Z,3.10
2018-03-08T01:25:12.802Z,2.90
2018-03-08T01:27:41.027Z,3.20
2018-03-08T01:30:09.151Z,2.83
2018-03-08T01:32:37.285Z,3.17
2018-03-08T01:35:05.400Z,2.90
2018-03-08T01:37:33.581Z,3.03
2018-03-08T01:40:01.706Z,3.40
2018-03-08T01:42:29.866Z,2.97
2018-03-08T01:44:58.727Z,3.00
2018-03-08T01:47:26.898Z,3.00
2018-03-08T01:49:55.037Z,3.47
2018-03-08T01:52:23.960Z,2.90
2018-03-08T01:54:52.122Z,3.33
2018-03-08T01:57:20.233Z,3.40
2018-03-08T01:59:48.381Z,3.60
2018-03-08T02:02:16.531Z,3.10
2018-03-08T02:04:44.788Z,3.57
2018-03-08T02:07:12.942Z,3.60
2018-03-08T02:09:41.104Z,3.90
2018-03-08T02:12:09.307Z,3.27
2018-03-08T02:14:37.423Z,3.30
2018-03-08T02:17:06.344Z,3.63
2018-03-08T02:19:34.450Z,4.10
2018-03-08T02:22:02.592Z,3.57
2018-03-08T02:24:31.507Z,3.80
2018-03-08T02:27:00.402Z,3.87
2018-03-08T02:29:29.274Z,3.80
2018-03-08T02:31:57.407Z,3.27
2018-03-08T02:34:25.565Z,3.60
2018-03-08T02:36:54.444Z,3.60
2018-03-08T02:39:22.568Z,3.87
2018-03-08T02:41:51.465Z,3.30
2018-03-08T02:44:20.375Z,3.40
2018-03-08T02:46:49.257Z,3.03
2018-03-08T02:49:17.385Z,3.47
2018-03-08T02:51:45.538Z,3.17
2018-03-08T02:54:14.408Z,3.10
2018-03-08T02:56:42.502Z,3.03
2018-03-08T02:59:10.591Z,3.40
2018-03-08T03:01:38.715Z,3.40
2018-03-08T03:04:06.815Z,3.17
2018-03-08T03:06:34.918Z,3.27
2018-03-08T03:09:03.030Z,2.77
2018-03-08T03:11:31.150Z,2.80
2018-03-08T03:13:59.266Z,2.77
2018-03-08T03:16:27.373Z,3.10
2018-03-08T03:18:55.573Z,3.33
2018-03-08T03:21:23.658Z,3.27
2018-03-08T03:23:51.777Z,3.10
2018-03-08T03:26:20.710Z,3.30
2018-03-08T03:28:48.875Z,3.43
2018-03-08T03:31:17.068Z,3.03
2018-03-08T03:33:45.237Z,3.30
2018-03-08T03:36:14.116Z,2.90
2018-03-08T03:38:42.304Z,3.50
2018-03-08T03:41:10.424Z,3.17
2018-03-08T03:43:39.287Z,3.37
2018-03-08T03:46:07.492Z,3.67
2018-03-08T03:48:36.380Z,3.10
2018-03-08T03:51:05.985Z,3.03
2018-03-08T03:53:34.196Z,3.47
2018-03-08T03:56:02.352Z,3.33
2018-03-08T03:58:30.468Z,3.00
2018-03-08T04:01:01.276Z,3.50
2018-03-08T04:03:29.497Z,3.67
2018-03-08T04:05:57.589Z,3.73
2018-03-08T04:08:26.508Z,3.53
2018-03-08T04:10:55.366Z,3.60
2018-03-08T04:13:23.491Z,3.70
2018-03-08T04:15:52.549Z,3.37
2018-03-08T04:18:20.725Z,3.57
2018-03-08T04:20:48.889Z,4.47
2018-03-08T04:23:17.016Z,3.80
2018-03-08T04:25:45.117Z,4.00
2018-03-08T04:28:13.268Z,3.20
2018-03-08T04:30:41.363Z,4.20
2018-03-08T04:33:09.479Z,5.27
2018-03-08T04:35:37.611Z,4.83
2018-03-08T04:38:05.806Z,3.90
2018-03-08T04:40:33.955Z,4.50
2018-03-08T04:43:02.871Z,4.70
2018-03-08T04:45:30.988Z,4.70
2018-03-08T04:47:59.177Z,4.60
2018-03-08T04:50:27.346Z,4.37
2018-03-08T04:52:55.530Z,4.40
2018-03-08T04:55:23.671Z,4.43
2018-03-08T04:57:51.770Z,4.43
2018-03-08T05:00:20.913Z,5.80
2018-03-08T05:02:48.996Z,4.50
2018-03-08T05:05:17.098Z,5.63
2018-03-08T05:07:45.233Z,5.80
2018-03-08T05:10:14.151Z,4.53
2018-03-08T05:12:42.266Z,4.63
2018-03-08T05:15:10.409Z,6.10
2018-03-08T05:17:39.340Z,5.43
2018-03-08T05:20:07.441Z,5.90
2018-03-08T05:22:35.586Z,6.03
2018-03-08T05:25:04.477Z,5.70
2018-03-08T05:27:33.359Z,5.77
2018-03-08T05:30:01.485Z,5.10
2018-03-08T05:32:30.495Z,5.13
2018-03-08T05:34:59.480Z,4.83
2018-03-08T05:37:28.359Z,4.87
2018-03-08T05:39:56.473Z,5.50
2018-03-08T05:42:25.374Z,5.10
2018-03-08T05:44:54.276Z,4.57
2018-03-08T05:47:23.124Z,4.40
2018-03-08T05:49:51.259Z,4.13
2018-03-08T05:52:20.135Z,4.77
2018-03-08T05:54:48.301Z,3.93
2018-03-08T05:57:16.403Z,3.80
2018-03-08T05:59:44.535Z,4.13
2018-03-08T06:02:13.478Z,3.70
2018-03-08T06:04:41.632Z,3.50
2018-03-08T06:07:09.744Z,3.63
2018-03-08T06:09:37.858Z,3.50
2018-03-08T06:12:06.112Z,3.37
2018-03-08T06:14:34.228Z,3.23
2018-03-08T06:17:02.388Z,3.03
2018-03-08T06:19:30.515Z,2.90
2018-03-08T06:21:58.624Z,2.90
2018-03-08T06:24:27.524Z,2.90
2018-03-08T06:26:56.447Z,2.70
2018-03-08T06:29:24.580Z,2.87
2018-03-08T06:31:52.717Z,2.63
2018-03-08T06:34:20.849Z,3.07
2018-03-08T06:36:48.998Z,2.90
2018-03-08T06:39:17.095Z,2.90
2018-03-08T06:41:45.259Z,3.23
2018-03-08T06:44:13.390Z,3.00
2018-03-08T06:46:41.557Z,3.63
2018-03-08T06:49:09.648Z,3.20
2018-03-08T06:51:37.828Z,3.30
2018-03-08T06:54:05.937Z,3.00
2018-03-08T06:56:34.116Z,3.20
2018-03-08T06:59:02.253Z,3.33
2018-03-08T07:01:30.388Z,3.07
2018-03-08T07:03:58.478Z,3.50
2018-03-08T07:06:26.625Z,3.40
2018-03-08T07:08:54.721Z,3.20
2018-03-08T07:11:22.886Z,3.30
2018-03-08T07:13:51.096Z,3.33
2018-03-08T07:16:19.195Z,3.53
2018-03-08T07:18:47.334Z,3.40
2018-03-08T07:21:16.514Z,2.70
2018-03-08T07:23:44.618Z,2.60
2018-03-08T07:26:13.549Z,2.40
2018-03-08T07:28:41.699Z,2.20
2018-03-08T07:31:10.532Z,2.20
2018-03-08T07:33:38.663Z,2.17
2018-03-08T07:36:06.775Z,2.40
2018-03-08T07:38:35.644Z,2.40
2018-03-08T07:41:03.771Z,2.63
2018-03-08T07:43:32.751Z,2.20
2018-03-08T07:46:00.837Z,2.20
2018-03-08T07:48:28.975Z,2.60
2018-03-08T07:50:57.080Z,2.53
2018-03-08T07:53:25.274Z,2.30
2018-03-08T07:55:53.396Z,2.10
2018-03-08T07:58:21.541Z,2.27
2018-03-08T08:00:51.012Z,2.83
2018-03-08T08:03:19.256Z,2.37
2018-03-08T08:05:59.263Z,2.50
2018-03-08T08:08:40.258Z,2.37
2018-03-08T08:11:09.385Z,2.20
2018-03-08T08:13:37.492Z,2.50
2018-03-08T08:16:05.636Z,2.30
2018-03-08T08:18:33.745Z,2.53
2018-03-08T08:21:01.839Z,2.30
2018-03-08T08:23:29.970Z,2.27
2018-03-08T08:25:58.051Z,2.60
2018-03-08T08:28:26.190Z,3.13
2018-03-08T08:30:54.298Z,2.30
2018-03-08T08:33:22.487Z,2.37
2018-03-08T08:35:50.619Z,2.00
2018-03-08T08:38:18.805Z,2.23
2018-03-08T08:40:48.216Z,2.40
2018-03-08T08:43:17.200Z,2.20
2018-03-08T08:45:45.290Z,2.30
2018-03-08T08:48:13.412Z,2.40
2018-03-08T08:50:41.521Z,2.47
2018-03-08T08:53:09.673Z,3.00
2018-03-08T08:55:37.792Z,2.30
2018-03-08T08:58:05.930Z,2.43
2018-03-08T09:00:34.098Z,2.10
2018-03-08T09:03:02.189Z,2.00
2018-03-08T09:05:31.155Z,1.73
2018-03-08T09:07:59.290Z,1.43
2018-03-08T09:10:28.190Z,2.00
2018-03-08T09:12:57.086Z,2.03
2018-03-08T09:15:25.226Z,1.97
2018-03-08T09:17:53.382Z,1.80
2018-03-08T09:20:22.230Z,2.40
2018-03-08T09:22:50.323Z,2.47
2018-03-08T09:25:18.440Z,1.70
2018-03-08T09:27:46.554Z,2.00
2018-03-08T09:30:14.679Z,2.10
2018-03-08T09:32:42.808Z,2.40
2018-03-08T09:35:10.939Z,2.37
2018-03-08T09:37:39.064Z,2.40
2018-03-08T09:40:07.272Z,2.00
2018-03-08T09:42:35.642Z,2.10
2018-03-08T09:45:03.791Z,2.00
2018-03-08T09:47:32.025Z,1.93
2018-03-08T09:50:00.911Z,1.80
2018-03-08T09:52:29.040Z,2.37
2018-03-08T09:54:57.133Z,1.70
2018-03-08T09:57:25.239Z,2.33
2018-03-08T09:59:53.376Z,1.80
2018-03-08T10:02:21.497Z,1.60
2018-03-08T10:04:49.814Z,2.07
2018-03-08T10:07:17.946Z,2.37
2018-03-08T10:09:46.158Z,2.20
2018-03-08T10:12:14.260Z,1.83
2018-03-08T10:14:42.388Z,2.00
2018-03-08T10:17:11.268Z,2.00
2018-03-08T10:19:39.372Z,2.17
2018-03-08T10:22:08.285Z,2.37
2018-03-08T10:24:37.160Z,2.07
2018-03-08T10:27:05.403Z,2.43
2018-03-08T10:29:33.491Z,1.67
2018-03-08T10:32:01.682Z,2.13
2018-03-08T10:34:29.802Z,2.40
2018-03-08T10:36:57.929Z,1.97
2018-03-08T10:41:54.130Z,1.90
2018-03-08T10:44:22.230Z,1.77
2018-03-08T10:46:50.395Z,1.80
2018-03-08T10:49:18.492Z,1.90
2018-03-08T10:51:46.616Z,1.90
2018-03-08T10:54:15.533Z,1.97
2018-03-08T10:56:43.678Z,1.93
2018-03-08T10:59:12.910Z,2.23
2018-03-08T11:01:43.922Z,1.90
2018-03-08T11:04:14.799Z,1.83
2018-03-08T11:06:42.887Z,1.77
2018-03-08T11:09:11.034Z,1.63
2018-03-08T11:11:39.140Z,1.70
2018-03-08T11:14:07.232Z,1.70
2018-03-08T11:16:35.429Z,2.30
2018-03-08T11:19:03.573Z,1.90
2018-03-08T11:21:31.709Z,1.93
2018-03-08T11:23:59.805Z,1.80
2018-03-08T11:26:28.774Z,1.80
2018-03-08T11:28:56.891Z,1.87
2018-03-08T11:31:25.774Z,1.87
2018-03-08T11:33:53.889Z,1.70
2018-03-08T11:36:22.776Z,1.63
2018-03-08T11:38:50.910Z,1.83
2018-03-08T11:41:19.036Z,1.93
2018-03-08T11:43:47.920Z,1.50
2018-03-08T11:46:16.038Z,1.90
2018-03-08T11:48:44.164Z,1.70
2018-03-08T11:51:12.284Z,1.50
2018-03-08T11:53:40.442Z,1.50
2018-03-08T11:56:08.546Z,1.97
2018-03-08T11:58:36.677Z,1.83
2018-03-08T12:01:04.888Z,2.10
2018-03-08T12:03:32.995Z,1.47
2018-03-08T12:06:01.102Z,1.63
2018-03-08T12:08:29.269Z,1.50
2018-03-08T12:10:57.378Z,2.00
2018-03-08T12:13:25.496Z,2.03
2018-03-08T12:15:53.626Z,1.63
2018-03-08T12:18:21.738Z,1.60
2018-03-08T12:20:49.908Z,1.73
2018-03-08T12:23:18.160Z,2.20
2018-03-08T12:25:46.244Z,1.90
2018-03-08T12:28:14.441Z,1.70
2018-03-08T12:30:42.519Z,2.03
2018-03-08T12:33:10.627Z,1.50
2018-03-08T12:35:38.745Z,1.60
2018-03-08T12:38:06.851Z,1.40
2018-03-08T12:40:34.959Z,2.03
2018-03-08T12:43:03.070Z,1.67
2018-03-08T12:45:31.165Z,1.73
2018-03-08T12:47:59.382Z,1.77
2018-03-08T12:50:27.515Z,1.57
2018-03-08T12:52:55.714Z,1.53
2018-03-08T12:55:23.856Z,2.20
2018-03-08T12:57:52.709Z,1.57
2018-03-08T13:00:20.946Z,1.60
2018-03-08T13:02:49.804Z,1.47
2018-03-08T13:05:17.929Z,1.67
2018-03-08T13:07:46.823Z,1.80
2018-03-08T13:10:15.679Z,1.50
2018-03-08T13:12:43.915Z,1.50
2018-03-08T13:15:12.863Z,1.53
2018-03-08T13:17:40.936Z,1.40
2018-03-08T13:20:09.112Z,1.70
2018-03-08T13:22:37.264Z,1.37
2018-03-08T13:25:05.438Z,1.50
2018-03-08T13:27:33.579Z,1.40
2018-03-08T13:30:01.679Z,1.70
2018-03-08T13:32:29.798Z,1.60
2018-03-08T13:34:58.020Z,1.30
2018-03-08T13:37:26.888Z,1.60
2018-03-08T13:39:55.056Z,1.73
2018-03-08T13:42:23.189Z,1.23
2018-03-08T13:44:51.317Z,1.33
2018-03-08T13:47:19.438Z,1.30
2018-03-08T13:49:47.690Z,1.27
2018-03-08T13:52:15.897Z,1.20
2018-03-08T13:54:44.034Z,1.50
2018-03-08T13:57:12.125Z,1.60
2018-03-08T13:59:40.348Z,1.20
2018-03-08T14:02:08.463Z,1.30
2018-03-08T14:04:37.374Z,1.20
2018-03-08T14:07:06.338Z,1.50
2018-03-08T14:09:34.447Z,1.50
2018-03-08T14:12:02.602Z,1.30
2018-03-08T14:14:30.773Z,1.43
2018-03-08T14:16:58.898Z,1.47
2018-03-08T14:19:27.099Z,1.40
2018-03-08T14:21:55.239Z,3.20
2018-03-08T14:24:23.394Z,1.20
2018-03-08T14:26:51.603Z,1.10
2018-03-08T14:29:19.793Z,1.37
2018-03-08T14:31:47.956Z,1.07
2018-03-08T14:34:16.804Z,1.50
2018-03-08T14:36:44.987Z,1.50
2018-03-08T14:39:13.176Z,1.10
2018-03-08T14:41:41.305Z,1.53
2018-03-08T14:44:10.233Z,1.80
2018-03-08T14:46:38.387Z,1.50
2018-03-08T14:49:06.477Z,1.93
2018-03-08T14:51:35.387Z,1.40
2018-03-08T14:54:04.243Z,1.30
2018-03-08T14:56:32.481Z,1.20
2018-03-08T14:59:01.365Z,1.60
2018-03-08T15:01:29.514Z,1.80
2018-03-08T15:03:57.606Z,2.07
2018-03-08T15:06:25.800Z,1.90
2018-03-08T15:08:54.008Z,1.80
2018-03-08T15:11:22.202Z,1.97
2018-03-08T15:13:50.307Z,2.20
2018-03-08T15:16:18.458Z,1.90
2018-03-08T15:18:48.091Z,1.60
2018-03-08T15:21:16.960Z,1.43
2018-03-08T15:23:45.064Z,1.50
2018-03-08T15:26:13.229Z,1.20
2018-03-08T15:28:41.400Z,1.70
2018-03-08T15:31:09.517Z,1.40
2018-03-08T15:33:37.635Z,1.90
2018-03-08T15:36:06.502Z,1.23
2018-03-08T15:38:34.657Z,1.30
2018-03-08T15:41:02.816Z,1.40
2018-03-08T15:43:31.690Z,1.50
2018-03-08T15:45:59.785Z,1.23
2018-03-08T15:48:27.909Z,1.27
2018-03-08T15:50:56.020Z,1.60
2018-03-08T15:53:24.146Z,1.33
2018-03-08T15:55:52.340Z,1.43
2018-03-08T15:58:21.330Z,1.50
2018-03-08T16:00:49.518Z,1.40
2018-03-08T16:03:17.622Z,1.60
2018-03-08T16:05:45.721Z,1.40
2018-03-08T16:11:32.765Z,2.03
2018-03-08T16:14:01.580Z,1.50
2018-03-08T16:16:29.636Z,1.20
2018-03-08T16:18:58.472Z,1.40
2018-03-08T16:21:32.372Z,1.50
2018-03-08T16:24:01.198Z,1.73
2018-03-08T16:26:29.252Z,1.80
2018-03-08T16:28:57.310Z,1.70
2018-03-08T16:31:25.368Z,2.03
2018-03-08T16:33:53.440Z,2.07
2018-03-08T16:36:21.503Z,1.80
2018-03-08T16:38:50.339Z,1.80
2018-03-08T16:41:18.388Z,2.87
2018-03-08T16:43:47.208Z,2.27
2018-03-08T16:46:15.273Z,1.87
2018-03-08T16:48:44.100Z,2.10
2018-03-08T16:51:12.160Z,1.83
2018-03-08T16:53:40.984Z,1.60
2018-03-08T16:56:09.055Z,2.20
2018-03-08T16:58:37.122Z,1.93
2018-03-08T17:01:05.938Z,1.93
2018-03-08T17:03:33.995Z,1.70
2018-03-08T17:06:02.064Z,1.90
2018-03-08T17:08:30.115Z,1.60
2018-03-08T17:10:58.179Z,1.70
2018-03-08T17:13:26.236Z,1.57
2018-03-08T17:15:54.356Z,2.20
2018-03-08T17:18:22.354Z,1.53
2018-03-08T17:20:50.422Z,2.00
2018-03-08T17:23:18.469Z,2.23
2018-03-08T17:25:46.518Z,2.10
2018-03-08T17:28:14.606Z,1.97
2018-03-08T17:30:42.645Z,2.10
2018-03-08T17:33:10.716Z,2.50
2018-03-08T17:35:39.544Z,2.10
2018-03-08T17:38:07.617Z,2.00
2018-03-08T17:40:35.684Z,1.97
2018-03-08T17:43:04.529Z,2.03
2018-03-08T17:45:32.585Z,2.20
2018-03-08T17:48:01.669Z,2.27
2018-03-08T17:50:30.271Z,2.33
2018-03-08T17:52:58.390Z,2.13
2018-03-08T17:55:27.258Z,2.40
2018-03-08T17:57:55.465Z,2.30
2018-03-08T18:00:24.704Z,2.40
2018-03-08T18:02:53.243Z,2.43
2018-03-08T18:05:22.069Z,3.20
2018-03-08T18:07:51.470Z,3.10
2018-03-08T18:10:19.931Z,2.63
2018-03-08T18:12:49.186Z,2.60
2018-03-08T18:15:18.593Z,2.90
2018-03-08T18:17:48.211Z,2.93
2018-03-08T18:20:18.609Z,2.53
2018-03-08T18:22:47.208Z,2.63
2018-03-08T18:25:16.557Z,2.70
2018-03-08T18:27:46.051Z,2.80
2018-03-08T18:30:14.465Z,3.73
2018-03-08T18:32:42.921Z,3.23
2018-03-08T18:35:12.583Z,2.60
2018-03-08T18:37:40.693Z,2.80
2018-03-08T18:40:09.674Z,3.20
2018-03-08T18:42:39.090Z,3.33
2018-03-08T18:45:07.286Z,4.53
2018-03-08T18:47:35.338Z,2.87
2018-03-08T18:50:03.388Z,2.77
2018-03-08T18:52:31.479Z,2.40
2018-03-08T18:54:59.534Z,2.83
2018-03-08T18:57:27.596Z,3.13
2018-03-08T18:59:56.411Z,2.80
2018-03-08T19:02:25.248Z,2.93
2018-03-08T19:04:53.295Z,3.07
2018-03-08T19:07:21.412Z,2.90
2018-03-08T19:09:49.573Z,3.50
2018-03-08T19:12:17.707Z,2.80
2018-03-08T19:14:45.814Z,2.70
2018-03-08T19:17:13.947Z,2.63
2018-03-08T19:19:42.064Z,3.67
2018-03-08T19:22:10.191Z,4.23
2018-03-08T19:24:39.091Z,3.30
2018-03-08T19:27:07.982Z,3.30
2018-03-08T19:29:36.105Z,3.03
2018-03-08T19:32:04.255Z,2.83
2018-03-08T19:34:33.114Z,3.20
2018-03-08T19:37:01.233Z,2.87
2018-03-08T19:39:29.378Z,2.73
2018-03-08T19:41:57.488Z,2.90
2018-03-08T19:44:25.671Z,2.80
2018-03-08T19:46:53.765Z,2.73
2018-03-08T19:49:21.912Z,2.53
2018-03-08T19:51:50.112Z,2.60
2018-03-08T19:54:18.594Z,2.47
2018-03-08T19:56:46.696Z,2.77
2018-03-08T19:59:14.837Z,3.20
2018-03-08T20:01:42.963Z,3.03
2018-03-08T20:04:11.210Z,2.50
2018-03-08T20:06:40.150Z,2.63
2018-03-08T20:09:08.252Z,2.33
2018-03-08T20:11:36.405Z,2.83
2018-03-08T20:14:04.545Z,2.30
2018-03-08T20:16:32.845Z,2.40
2018-03-08T20:19:01.856Z,2.07
2018-03-08T20:21:30.805Z,2.30
2018-03-08T20:23:58.897Z,3.30
2018-03-08T20:26:27.039Z,2.77
2018-03-08T20:28:55.909Z,2.70
2018-03-08T20:31:24.016Z,2.27
2018-03-08T20:33:52.917Z,2.40
2018-03-08T20:36:21.052Z,2.50
2018-03-08T20:38:49.219Z,2.37
2018-03-08T20:41:17.312Z,2.27
2018-03-08T20:43:45.471Z,2.00
2018-03-08T20:46:14.368Z,2.50
2018-03-08T20:48:43.248Z,2.30
2018-03-08T20:51:11.481Z,2.07
2018-03-08T20:53:39.678Z,2.50
2018-03-08T20:56:07.892Z,2.60
2018-03-08T20:58:36.008Z,2.30
2018-03-08T21:01:04.914Z,2.53
2018-03-08T21:03:33.808Z,2.40
2018-03-08T21:06:02.697Z,2.43
2018-03-08T21:08:30.817Z,2.30
2018-03-08T21:10:59.723Z,2.40
2018-03-08T21:13:27.860Z,2.13
2018-03-08T21:15:55.980Z,2.63
2018-03-08T21:18:24.094Z,6.87
2018-03-08T21:20:52.182Z,3.53
2018-03-08T21:23:20.315Z,2.60
2018-03-08T21:25:48.453Z,2.57
2018-03-08T21:28:16.567Z,3.10
2018-03-08T21:30:44.746Z,2.40
2018-03-08T21:33:12.853Z,2.77
2018-03-08T21:35:41.013Z,2.43
2018-03-08T21:38:09.209Z,2.40
2018-03-08T21:40:37.346Z,2.33
2018-03-08T21:43:06.217Z,2.70
2018-03-08T21:45:34.397Z,2.87
2018-03-08T21:48:02.510Z,2.47
2018-03-08T21:50:31.752Z,3.93
2018-03-08T21:52:59.877Z,4.20
2018-03-08T21:55:28.026Z,4.60
2018-03-08T21:57:56.169Z,4.40
2018-03-08T22:00:24.324Z,4.23
2018-03-08T22:02:52.437Z,5.53
2018-03-08T22:05:20.541Z,2.53
2018-03-08T22:07:48.687Z,2.23
2018-03-08T22:10:16.823Z,2.20
2018-03-08T22:12:45.728Z,2.10
2018-03-08T22:15:14.654Z,2.13
2018-03-08T22:17:42.828Z,1.93
2018-03-08T22:20:11.775Z,2.90
2018-03-08T22:22:39.937Z,2.30
2018-03-08T22:25:08.100Z,3.00
2018-03-08T22:27:37.396Z,4.00
2018-03-08T22:30:05.585Z,4.47
2018-03-08T22:32:34.468Z,4.63
2018-03-08T22:35:02.587Z,5.17
2018-03-08T22:37:31.506Z,5.90
2018-03-08T22:39:59.618Z,5.60
2018-03-08T22:42:27.746Z,5.57
2018-03-08T22:44:56.676Z,6.30
2018-03-08T22:47:24.809Z,5.50
2018-03-08T22:49:52.940Z,5.93
2018-03-08T22:52:21.071Z,5.90
2018-03-08T22:54:49.213Z,6.73
2018-03-08T22:57:17.336Z,6.13
2018-03-08T22:59:45.443Z,6.00
2018-03-08T23:02:13.576Z,6.03
2018-03-08T23:04:41.715Z,6.00
2018-03-08T23:07:09.887Z,6.03
2018-03-08T23:09:38.016Z,6.47
2018-03-08T23:12:06.125Z,5.90
2018-03-08T23:14:34.252Z,5.83
2018-03-08T23:17:02.366Z,5.40
2018-03-08T23:19:31.237Z,5.43
2018-03-08T23:21:59.369Z,4.73
2018-03-08T23:24:28.255Z,4.17
2018-03-08T23:26:56.443Z,4.57
2018-03-08T23:29:24.570Z,3.53
2018-03-08T23:31:52.672Z,3.47
2018-03-08T23:34:20.778Z,3.50
2018-03-08T23:36:48.884Z,3.67
2018-03-08T23:39:17.839Z,3.43
2018-03-08T23:41:45.912Z,3.50
2018-03-08T23:44:14.053Z,3.40
2018-03-08T23:46:42.148Z,3.50
2018-03-08T23:49:11.006Z,3.50
2018-03-08T23:51:39.139Z,3.50
2018-03-08T23:54:08.053Z,3.60
2018-03-08T23:56:36.934Z,3.80
2018-03-08T23:59:05.829Z,3.53
